• Join FlightAware (Why Join?)
  • Login
  • US Flag 
10:57AM EDT


 

Airport Tracker/Info


-or-


 

Live Flight TrackerFlight Track Log ✈ ASH2620 ✈ 01-May-2013 ✈ KCHS - KCLT

Flight Track Log - Related Links

Times and Time Zones

All times are in EDT time to prevent confusion due to time zone crossing. See the ASH2620 flight status page for this flight to view local times or setup timezone preferences in your user account.

Time Position Orientation Groundspeed Altitude Reporting Facility
EDT Latitude Longitude Course Direction KTS MPH feet Rate Location/Type
07:47PM 32.9772 -80.0128 North 231 266 3,800  Level Jacksonville Center
07:48PM 33.0456 -79.9933 13° North 259 298 7,100 3,300 Climbing Jacksonville Center
07:49PM 33.1945 -79.9422 19° North  Level FlightAware Approximate
07:49PM 33.1244 -79.9708 13° North 270 311 10,500  Level Jacksonville Center
07:50PM 33.2732 -79.9220 North  Level FlightAware Approximate
07:50PM 33.2175 -79.9431 14° North 304 350 12,700  Level Jacksonville Center
07:51PM 33.3494 -79.8920 23° Northeast  Level FlightAware Approximate
07:51PM 33.3297 -79.9144 12° North 353 406 15,900  Level Jacksonville Center
07:52PM 33.4278 -79.8711 North  Level FlightAware Approximate
07:52PM 33.4353 -79.8833 14° North 376 433 18,300  Level Jacksonville Center
07:53PM 33.5453 -79.8522 13° North 387 445 19,000 300 Climbing Jacksonville Center
07:54PM 33.6519 -79.8636 355° North 381 438 19,000  Level Jacksonville Center
07:55PM 33.7553 -79.9100 340° North 387 445 19,000  Level Jacksonville Center
07:56PM 33.8628 -79.9589 339° North 399 459 19,000  Level Jacksonville Center
07:57PM 33.9703 -80.0053 340° North 404 465 19,000 -360 Level Jacksonville Center
07:58PM 34.0736 -80.0544 338° Northwest 404 465 18,300 -1,020 Descending Jacksonville Center
07:59PM 34.1769 -80.0989 340° North 404 465 17,000 -1,440 Descending Jacksonville Center
08:00PM 34.2758 -80.1461 338° Northwest 390 449 15,500 -1,500 Descending Jacksonville Center
08:01PM 34.3728 -80.1883 340° North 378 435 14,100 -1,440 Descending Jacksonville Center
08:02PM 34.4719 -80.2331 340° North 373 429 12,700 -1,020 Descending Jacksonville Center
08:04PM 34.6669 -80.3264 339° North 335 386 11,000 -600 Descending Atlanta Center
08:05PM 34.7311 -80.3792 326° Northwest 294 338 11,000 -540 Level Atlanta Center
08:06PM 34.7789 -80.4403 314° West 254 292 10,100 -1,140 Descending Atlanta Center
08:07PM 34.7997 -80.5125 289° West 243 280 8,800 -1,380 Descending Atlanta Center
08:08PM 34.7936 -80.5989 265° West 250 288 7,300 -1,380 Descending Atlanta Center
08:09PM 34.7833 -80.6803 261° West 247 284 6,100 -660 Descending Atlanta Center
08:10PM 34.7736 -80.7767 263° West 246 283 6,000 -60 Descending Atlanta Center
08:11PM 34.7653 -80.8556 263° West 237 273 6,000  Level Atlanta Center
08:12PM 34.7753 -80.9233 280° West 217 250 6,000 -180 Level Atlanta Center
08:13PM 34.8339 -80.9364 350° North 209 241 5,700 -480 Descending Atlanta Center
08:14PM 34.8906 -80.9417 356° North 196 226 5,100 -360 Descending Atlanta Center
08:15PM 34.9406 -80.9450 357° North 167 192 5,000 -60 Descending Atlanta Center
08:16PM 34.9928 -80.9481 357° North 176 203 5,000 -540 Level Atlanta Center
08:17PM 35.0411 -80.9539 354° North 177 204 3,900 -1,080 Descending Atlanta Center
08:18PM 35.0850 -80.9600 353° North 173 199 3,000 -960 Descending Atlanta Center
08:19PM 35.1372 -80.9631 357° North 158 182 2,000 -900 Descending Atlanta Center